Accueil
METAR-TAF:

METAR-TAF

Aéroports :

Portsmouth International Airport at Pease

Portsmouth, New Hampshire, États-Unis

latitude: 43-05N, longitude: 070-49W, altitude: 31 m

Observation

Le bulletin a été fait il y a 1 heure et 1 minutes, à 12:56 UTC
Vent 8 kt de nord-ouest
Température 12°C
Humidité 47%
Pression 1021 hPa
Visibilité: 16.1 km
Quelques nuages à une hauteur de 6000 ft

METAR: KPSM 011256Z 31008KT 10SM FEW060 12/01 A3015 RMK AO2A SLP213 T01180006

Heure: 09:57 (13:57 UTC)

Prévision

Le bulletin a été fait il y a 2 heures et 37 minutes, à 11:20 UTC
Prévision valable du 01 à 12 UTC au 02 à 12 UTC
Vent 5 kt de ouest/nord-ouest
Visibilité: 10 km
Nuages épars à une hauteur de 8000 ft
A partir de 02 à 0200 UTC
Vent 3 kt de ouest
Visibilité: 10 km
Quelques nuages à une hauteur de 25000 ft

TAF: KPSM 011120Z 0112/0212 29005KT P6SM SCT080 FM020200 27003KT P6SM FEW250

Observations et prévisions météorologiques de plus de 4000 aéroports (messages METAR et TAF).

Les stations disponibles sont représentées par des disques jaunes et rouges sur la carte.

Passer la souris dessus pour voir le nom de la station.

Cliquer dessus pour voir les observations et prévisions météorologiques.

Pour changer de carte: cliquez sur les boutons verts avec une croix noire pour zoomer, sur le bouton vert avec un tiret pour effectuer un zoom arrière, ou sur les flèches vertes pour les cartes adjacentes.


METAR-TAF: